createdAt,value
2023-02-02T00:01:52.458Z,-1.10
2023-02-02T00:04:25.689Z,-1.11
2023-02-02T00:06:54.520Z,-1.13
2023-02-02T00:09:23.347Z,-1.16
2023-02-02T00:11:51.791Z,-1.16
2023-02-02T00:14:20.486Z,-1.26
2023-02-02T00:16:50.415Z,-1.29
2023-02-02T00:19:21.614Z,-1.32
2023-02-02T00:21:50.037Z,-1.35
2023-02-02T00:24:19.261Z,-1.41
2023-02-02T00:26:50.036Z,-1.43
2023-02-02T00:29:21.107Z,-1.48
2023-02-02T00:31:49.815Z,-1.49
2023-02-02T00:34:19.409Z,-1.51
2023-02-02T00:36:48.931Z,-1.54
2023-02-02T00:39:22.898Z,-1.58
2023-02-02T00:41:51.588Z,-1.61
2023-02-02T00:44:41.684Z,-1.63
2023-02-02T00:47:10.316Z,-1.65
2023-02-02T00:49:38.813Z,-1.65
2023-02-02T00:52:07.852Z,-1.67
2023-02-02T00:54:38.075Z,-1.69
2023-02-02T00:57:06.847Z,-1.71
2023-02-02T00:59:35.845Z,-1.74
2023-02-02T01:02:04.360Z,-1.77
2023-02-02T01:04:33.707Z,-1.81
2023-02-02T01:07:02.105Z,-1.82
2023-02-02T01:09:32.900Z,-1.83
2023-02-02T01:12:06.340Z,-1.83
2023-02-02T01:14:36.705Z,-1.85
2023-02-02T01:17:05.706Z,-1.87
2023-02-02T01:19:34.187Z,-1.91
2023-02-02T01:22:03.599Z,-1.94
2023-02-02T01:24:32.427Z,-1.97
2023-02-02T01:27:01.907Z,-2.03
2023-02-02T01:29:31.028Z,-2.06
2023-02-02T01:31:59.668Z,-2.11
2023-02-02T01:34:28.321Z,-2.17
2023-02-02T01:36:56.921Z,-2.21
2023-02-02T01:39:25.674Z,-2.26
2023-02-02T01:41:54.672Z,-2.31
2023-02-02T01:45:00.879Z,-2.34
2023-02-02T01:47:37.421Z,-2.36
2023-02-02T01:50:06.500Z,-2.39
2023-02-02T01:52:36.001Z,-2.42
2023-02-02T01:55:08.710Z,-2.43
2023-02-02T01:57:41.214Z,-2.43
2023-02-02T02:00:12.075Z,-2.43
2023-02-02T02:02:48.468Z,-2.43
2023-02-02T02:05:33.819Z,-2.43
2023-02-02T02:08:13.890Z,-2.46
2023-02-02T02:10:42.371Z,-2.48
2023-02-02T02:13:11.264Z,-2.49
2023-02-02T02:16:18.641Z,-2.49
2023-02-02T02:19:14.853Z,-2.47
2023-02-02T02:22:08.368Z,-2.49
2023-02-02T02:25:25.936Z,-2.51
2023-02-02T02:28:19.765Z,-2.51
2023-02-02T02:30:57.473Z,-2.52
2023-02-02T02:33:43.154Z,-2.54
2023-02-02T02:36:20.468Z,-2.54
2023-02-02T02:39:12.896Z,-2.54
2023-02-02T02:41:46.938Z,-2.55
2023-02-02T02:44:16.502Z,-2.55
2023-02-02T02:46:45.010Z,-2.55
2023-02-02T02:49:13.670Z,-2.57
2023-02-02T02:51:49.233Z,-2.57
2023-02-02T02:54:41.091Z,-2.58
2023-02-02T02:57:25.328Z,-2.58
2023-02-02T03:00:18.793Z,-2.61
2023-02-02T03:03:00.039Z,-2.60
2023-02-02T03:05:43.639Z,-2.61
2023-02-02T03:08:14.104Z,-2.61
2023-02-02T03:10:43.673Z,-2.62
2023-02-02T03:13:12.776Z,-2.61
2023-02-02T03:15:42.636Z,-2.59
2023-02-02T03:18:14.579Z,-2.58
2023-02-02T03:20:43.681Z,-2.59
2023-02-02T03:23:12.578Z,-2.59
2023-02-02T03:25:40.914Z,-2.60
2023-02-02T03:28:09.731Z,-2.63
2023-02-02T03:30:39.086Z,-2.64
2023-02-02T03:33:07.621Z,-2.66
2023-02-02T03:35:36.653Z,-2.68
2023-02-02T03:38:05.604Z,-2.71
2023-02-02T03:40:34.261Z,-2.73
2023-02-02T03:43:03.387Z,-2.74
2023-02-02T03:45:32.431Z,-2.74
2023-02-02T03:48:01.066Z,-2.74
2023-02-02T03:50:29.545Z,-2.74
2023-02-02T03:52:58.129Z,-2.74
2023-02-02T03:55:26.797Z,-2.73
2023-02-02T03:57:55.313Z,-2.71
2023-02-02T04:00:23.786Z,-2.70
2023-02-02T04:02:52.184Z,-2.70
2023-02-02T04:05:20.657Z,-2.71
2023-02-02T04:07:49.592Z,-2.71
2023-02-02T04:10:18.777Z,-2.71
2023-02-02T04:12:47.620Z,-2.71
2023-02-02T04:15:16.766Z,-2.70
2023-02-02T04:17:45.299Z,-2.70
2023-02-02T04:20:14.059Z,-2.71
2023-02-02T04:22:42.583Z,-2.68
2023-02-02T04:25:11.261Z,-2.65
2023-02-02T04:27:40.041Z,-2.64
2023-02-02T04:30:09.517Z,-2.65
2023-02-02T04:32:38.031Z,-2.64
2023-02-02T04:35:07.146Z,-2.63
2023-02-02T04:37:35.519Z,-2.61
2023-02-02T04:40:04.912Z,-2.61
2023-02-02T04:42:34.718Z,-2.61
2023-02-02T04:45:03.514Z,-2.60
2023-02-02T04:47:31.990Z,-2.60
2023-02-02T04:50:00.551Z,-2.60
2023-02-02T04:52:29.573Z,-2.60
2023-02-02T04:54:59.172Z,-2.59
2023-02-02T04:57:27.766Z,-2.57
2023-02-02T04:59:56.831Z,-2.55
2023-02-02T05:02:25.437Z,-2.53
2023-02-02T05:04:53.916Z,-2.52
2023-02-02T05:07:22.399Z,-2.47
2023-02-02T05:09:51.739Z,-2.44
2023-02-02T05:12:23.162Z,-2.40
2023-02-02T05:14:53.189Z,-2.35
2023-02-02T05:17:21.649Z,-2.32
2023-02-02T05:19:50.216Z,-2.28
2023-02-02T05:22:18.817Z,-2.22
2023-02-02T05:24:47.605Z,-2.15
2023-02-02T05:27:16.187Z,-2.08
2023-02-02T05:29:44.675Z,-2.00
2023-02-02T05:32:13.070Z,-1.95
2023-02-02T05:34:43.186Z,-1.90
2023-02-02T05:37:11.649Z,-1.87
2023-02-02T05:39:40.858Z,-1.84
2023-02-02T05:42:09.693Z,-1.83
2023-02-02T05:44:39.798Z,-1.81
2023-02-02T05:47:09.523Z,-1.79
2023-02-02T05:49:37.817Z,-1.77
2023-02-02T05:52:06.542Z,-1.77
2023-02-02T05:54:35.322Z,-1.75
2023-02-02T05:57:03.902Z,-1.74
2023-02-02T05:59:34.741Z,-1.72
2023-02-02T06:02:03.144Z,-1.68
2023-02-02T06:04:31.600Z,-1.64
2023-02-02T06:07:00.403Z,-1.62
2023-02-02T06:09:29.175Z,-1.60
2023-02-02T06:11:57.755Z,-1.60
2023-02-02T06:14:26.653Z,-1.58
2023-02-02T06:16:55.233Z,-1.55
2023-02-02T06:19:23.860Z,-1.49
2023-02-02T06:21:52.350Z,-1.46
2023-02-02T06:24:21.400Z,-1.40
2023-02-02T06:26:50.239Z,-1.38
2023-02-02T06:29:18.895Z,-1.34
2023-02-02T06:31:47.645Z,-1.28
2023-02-02T06:34:16.337Z,-1.21
2023-02-02T06:36:45.139Z,-1.14
2023-02-02T06:39:13.716Z,-1.08
2023-02-02T06:41:42.335Z,-1.03
2023-02-02T06:44:11.090Z,-0.98
2023-02-02T06:46:39.733Z,-0.92
2023-02-02T06:49:08.732Z,-0.88
2023-02-02T06:51:37.187Z,-0.80
2023-02-02T06:54:05.742Z,-0.71
2023-02-02T06:56:35.141Z,-0.63
2023-02-02T06:59:03.740Z,-0.59
2023-02-02T07:01:32.824Z,-0.52
2023-02-02T07:04:01.542Z,-0.47
2023-02-02T07:06:30.399Z,-0.44
2023-02-02T07:09:02.918Z,-0.39
2023-02-02T07:11:34.762Z,-0.34
2023-02-02T07:14:07.379Z,-0.32
2023-02-02T07:16:36.189Z,-0.27
2023-02-02T07:19:04.808Z,-0.24
2023-02-02T07:21:36.562Z,-0.24
2023-02-02T07:24:06.043Z,-0.29
2023-02-02T07:26:36.169Z,-0.28
2023-02-02T07:29:04.794Z,-0.28
2023-02-02T07:31:36.779Z,-0.27
2023-02-02T07:34:05.838Z,-0.29
2023-02-02T07:36:34.185Z,-0.27
2023-02-02T07:39:05.094Z,-0.25
2023-02-02T07:41:36.690Z,-0.18
2023-02-02T07:44:05.591Z,-0.06
2023-02-02T07:46:36.176Z,0.06
2023-02-02T07:49:06.540Z,0.13
2023-02-02T07:51:37.959Z,0.20
2023-02-02T07:54:07.388Z,0.24
2023-02-02T07:56:37.595Z,0.26
2023-02-02T07:59:06.497Z,0.32
2023-02-02T08:01:35.311Z,0.40
2023-02-02T08:04:04.698Z,0.51
2023-02-02T08:06:36.048Z,0.65
2023-02-02T08:09:07.809Z,0.77
2023-02-02T08:11:37.313Z,0.84
2023-02-02T08:14:06.406Z,0.88
2023-02-02T08:16:35.360Z,0.86
2023-02-02T08:19:04.078Z,0.83
2023-02-02T08:21:34.309Z,0.75
2023-02-02T08:24:05.299Z,0.71
2023-02-02T08:26:35.441Z,0.69
2023-02-02T08:29:06.335Z,0.70
2023-02-02T08:31:41.844Z,0.72
2023-02-02T08:34:11.306Z,0.68
2023-02-02T08:36:40.127Z,0.66
2023-02-02T08:39:12.190Z,0.69
2023-02-02T08:41:40.892Z,0.70
2023-02-02T08:44:11.620Z,0.68
2023-02-02T08:46:41.141Z,0.66
2023-02-02T08:49:11.683Z,0.60
2023-02-02T08:51:41.199Z,0.55
2023-02-02T08:54:09.745Z,0.48
2023-02-02T08:56:38.961Z,0.43
2023-02-02T08:59:07.938Z,0.40
2023-02-02T09:01:36.949Z,0.35
2023-02-02T09:04:07.582Z,0.34
2023-02-02T09:06:40.652Z,0.34
2023-02-02T09:09:13.216Z,0.31
2023-02-02T09:11:42.703Z,0.31
2023-02-02T09:14:13.722Z,0.30
2023-02-02T09:16:42.606Z,0.32
2023-02-02T09:19:11.758Z,0.33
2023-02-02T09:21:40.726Z,0.32
2023-02-02T09:24:10.973Z,0.30
2023-02-02T09:26:40.626Z,0.29
2023-02-02T09:29:12.338Z,0.28
2023-02-02T09:31:40.818Z,0.26
2023-02-02T09:34:11.418Z,0.23
2023-02-02T09:36:40.353Z,0.21
2023-02-02T09:39:10.169Z,0.19
2023-02-02T09:41:39.005Z,0.18
2023-02-02T09:44:28.921Z,0.19
2023-02-02T09:47:10.104Z,0.20
2023-02-02T09:49:57.777Z,0.18
2023-02-02T09:52:27.795Z,0.19
2023-02-02T09:55:23.495Z,0.20
2023-02-02T09:57:54.409Z,0.22
2023-02-02T10:00:34.035Z,0.28
2023-02-02T10:03:07.616Z,0.36
2023-02-02T10:06:18.528Z,0.45
2023-02-02T10:08:50.520Z,0.55
2023-02-02T10:11:18.897Z,0.62
2023-02-02T10:13:49.121Z,0.69
2023-02-02T10:16:18.215Z,0.73
2023-02-02T10:18:56.013Z,0.76
2023-02-02T10:21:44.341Z,0.75
2023-02-02T10:24:26.571Z,0.76
2023-02-02T10:27:04.560Z,0.77
2023-02-02T10:29:48.380Z,0.76
2023-02-02T10:32:26.183Z,0.77
2023-02-02T10:35:16.569Z,0.79
2023-02-02T10:37:57.135Z,0.81
2023-02-02T10:40:38.775Z,0.82
2023-02-02T10:43:44.719Z,0.82
2023-02-02T10:46:17.940Z,0.82
2023-02-02T10:48:47.441Z,0.83
2023-02-02T10:51:26.295Z,0.86
2023-02-02T10:53:59.071Z,0.90
2023-02-02T10:56:36.582Z,0.96
2023-02-02T10:59:07.482Z,1.02
2023-02-02T11:04:41.442Z,1.13
2023-02-02T11:07:11.106Z,1.20
2023-02-02T11:09:40.834Z,1.28
2023-02-02T11:12:31.513Z,1.35
2023-02-02T11:15:05.259Z,1.37
2023-02-02T11:17:35.510Z,1.40
2023-02-02T11:20:21.940Z,1.43
2023-02-02T11:22:50.522Z,1.48
2023-02-02T11:25:33.967Z,1.51
2023-02-02T11:28:11.805Z,1.52
2023-02-02T11:30:40.240Z,1.52
2023-02-02T11:33:28.614Z,1.51
2023-02-02T11:36:01.546Z,1.49
2023-02-02T11:38:31.060Z,1.49
2023-02-02T11:41:04.469Z,1.47
2023-02-02T11:43:41.691Z,1.49
2023-02-02T11:46:28.798Z,1.52
2023-02-02T11:49:12.964Z,1.58
2023-02-02T11:51:41.378Z,1.60
2023-02-02T11:54:22.557Z,1.65
2023-02-02T11:56:52.585Z,1.74
2023-02-02T12:00:06.960Z,1.78
2023-02-02T12:02:35.975Z,1.79
2023-02-02T12:05:11.058Z,1.76
2023-02-02T12:07:39.638Z,1.75
2023-02-02T12:10:18.691Z,1.74
2023-02-02T12:12:56.382Z,1.69
2023-02-02T12:15:58.144Z,1.64
2023-02-02T12:18:41.372Z,1.61
2023-02-02T12:21:25.050Z,1.60
2023-02-02T12:23:55.353Z,1.59
2023-02-02T12:26:28.442Z,1.59
2023-02-02T12:29:00.682Z,1.59
2023-02-02T12:32:11.444Z,1.58
2023-02-02T12:34:55.078Z,1.57
2023-02-02T12:37:47.025Z,1.57
2023-02-02T12:40:25.047Z,1.55
2023-02-02T12:43:12.646Z,1.54
2023-02-02T12:45:41.295Z,1.53
2023-02-02T12:48:23.842Z,1.50
2023-02-02T12:51:30.274Z,1.47
2023-02-02T12:54:34.922Z,1.43
2023-02-02T12:57:42.745Z,1.37
2023-02-02T13:00:27.053Z,1.33
2023-02-02T13:03:05.824Z,1.30
2023-02-02T13:05:55.976Z,1.24
2023-02-02T13:08:41.902Z,1.18
2023-02-02T13:11:30.171Z,1.15
2023-02-02T13:14:11.959Z,1.11
2023-02-02T13:16:44.499Z,1.07
2023-02-02T13:19:35.544Z,1.05
2023-02-02T13:22:05.168Z,1.01
2023-02-02T13:24:36.440Z,1.00
2023-02-02T13:27:06.308Z,0.98
2023-02-02T13:29:47.716Z,0.95
2023-02-02T13:32:36.491Z,0.92
2023-02-02T13:35:18.447Z,0.92
2023-02-02T13:37:49.983Z,0.91
2023-02-02T13:40:44.797Z,0.88
2023-02-02T13:43:35.933Z,0.88
2023-02-02T13:46:25.439Z,0.88
2023-02-02T13:48:56.520Z,0.87
2023-02-02T13:52:16.097Z,0.87
2023-02-02T13:55:09.766Z,0.85
2023-02-02T13:57:54.408Z,0.85
2023-02-02T14:00:31.045Z,0.86
2023-02-02T14:03:03.424Z,0.88
2023-02-02T14:05:37.039Z,0.86
2023-02-02T14:08:12.010Z,0.88
2023-02-02T14:14:00.491Z,0.90
2023-02-02T14:16:32.011Z,0.90
2023-02-02T14:19:01.103Z,0.89
2023-02-02T14:21:32.878Z,0.88
2023-02-02T14:24:03.306Z,0.86
2023-02-02T14:26:50.149Z,0.85
2023-02-02T14:29:35.040Z,0.84
2023-02-02T14:32:07.160Z,0.82
2023-02-02T14:34:42.246Z,0.83
2023-02-02T14:37:22.929Z,0.82
2023-02-02T14:40:12.735Z,0.80
2023-02-02T14:43:24.973Z,0.80
2023-02-02T14:46:15.922Z,0.80
2023-02-02T14:48:47.616Z,0.78
2023-02-02T14:51:16.029Z,0.79
2023-02-02T14:53:49.667Z,0.78
2023-02-02T14:56:18.220Z,0.77
2023-02-02T14:58:53.431Z,0.75
2023-02-02T15:01:27.747Z,0.74
2023-02-02T15:04:15.973Z,0.75
2023-02-02T15:06:44.347Z,0.75
2023-02-02T15:09:27.965Z,0.75
2023-02-02T15:12:02.137Z,0.75
2023-02-02T15:14:33.890Z,0.75
2023-02-02T15:17:41.596Z,0.74
2023-02-02T15:20:21.198Z,0.73
2023-02-02T15:22:56.398Z,0.73
2023-02-02T15:26:03.641Z,0.73
2023-02-02T15:28:44.861Z,0.72
2023-02-02T15:31:28.691Z,0.72
2023-02-02T15:33:59.712Z,0.73
2023-02-02T15:36:31.321Z,0.72
2023-02-02T15:39:08.786Z,0.72
2023-02-02T15:41:38.271Z,0.72
2023-02-02T15:44:26.830Z,0.73
2023-02-02T15:46:56.754Z,0.72
2023-02-02T15:49:34.918Z,0.70
2023-02-02T15:52:11.867Z,0.70
2023-02-02T15:54:53.423Z,0.70
2023-02-02T15:57:37.993Z,0.70
2023-02-02T16:00:26.754Z,0.69
2023-02-02T16:03:01.196Z,0.70
2023-02-02T16:05:29.841Z,0.72
2023-02-02T16:08:06.075Z,0.72
2023-02-02T16:10:34.921Z,0.72
2023-02-02T16:13:03.858Z,0.71
2023-02-02T16:15:33.493Z,0.72
2023-02-02T16:18:11.947Z,0.72
2023-02-02T16:20:40.357Z,0.72
2023-02-02T16:23:14.009Z,0.72
2023-02-02T16:25:47.668Z,0.72
2023-02-02T16:28:17.986Z,0.71
2023-02-02T16:30:47.035Z,0.72
2023-02-02T16:33:35.929Z,0.73
2023-02-02T16:36:26.689Z,0.74
2023-02-02T16:38:58.169Z,0.74
2023-02-02T16:41:37.212Z,0.76
2023-02-02T16:44:40.119Z,0.77
2023-02-02T16:47:16.867Z,0.77
2023-02-02T16:49:45.335Z,0.78
2023-02-02T16:52:16.274Z,0.78
2023-02-02T16:55:11.189Z,0.79
2023-02-02T16:57:39.843Z,0.77
2023-02-02T17:00:18.440Z,0.77
2023-02-02T17:02:48.675Z,0.78
2023-02-02T17:05:29.454Z,0.78
2023-02-02T17:08:00.838Z,0.78
2023-02-02T17:10:42.576Z,0.78
2023-02-02T17:13:35.050Z,0.78
2023-02-02T17:16:13.337Z,0.79
2023-02-02T17:18:42.138Z,0.79
2023-02-02T17:21:14.418Z,0.79
2023-02-02T17:23:43.271Z,0.79
2023-02-02T17:26:12.479Z,0.79
2023-02-02T17:28:41.541Z,0.79
2023-02-02T17:31:12.398Z,0.79
2023-02-02T17:33:41.257Z,0.78
2023-02-02T17:36:10.886Z,0.79
2023-02-02T17:38:39.899Z,0.79
2023-02-02T17:41:10.432Z,0.80
2023-02-02T17:43:43.053Z,0.80
2023-02-02T17:46:14.378Z,0.78
2023-02-02T17:48:44.535Z,0.78
2023-02-02T17:51:15.330Z,0.77
2023-02-02T17:53:44.738Z,0.76
2023-02-02T17:56:13.396Z,0.75
2023-02-02T17:58:42.284Z,0.75
2023-02-02T18:01:11.864Z,0.73
2023-02-02T18:03:41.316Z,0.71
2023-02-02T18:06:10.525Z,0.69
2023-02-02T18:08:39.465Z,0.67
2023-02-02T18:11:13.173Z,0.65
2023-02-02T18:13:43.170Z,0.65
2023-02-02T18:16:12.328Z,0.64
2023-02-02T18:18:40.974Z,0.62
2023-02-02T18:21:10.479Z,0.60
2023-02-02T18:23:38.810Z,0.60
2023-02-02T18:26:14.534Z,0.60
2023-02-02T18:28:43.047Z,0.60
2023-02-02T18:31:12.773Z,0.60
2023-02-02T18:33:41.991Z,0.61
2023-02-02T18:36:20.061Z,0.61
2023-02-02T18:38:51.244Z,0.61
2023-02-02T18:41:21.818Z,0.60
2023-02-02T18:43:53.370Z,0.60
2023-02-02T18:46:21.960Z,0.56
2023-02-02T18:48:50.767Z,0.52
2023-02-02T18:51:22.218Z,0.47
2023-02-02T18:53:50.850Z,0.45
2023-02-02T18:56:19.551Z,0.44
2023-02-02T18:58:48.409Z,0.42
2023-02-02T19:01:18.493Z,0.40
2023-02-02T19:03:48.486Z,0.36
2023-02-02T19:06:36.502Z,0.33
2023-02-02T19:09:06.193Z,0.33
2023-02-02T19:11:39.431Z,0.34
2023-02-02T19:14:20.046Z,0.36
2023-02-02T19:16:48.650Z,0.40
2023-02-02T19:19:20.629Z,0.43
2023-02-02T19:21:49.340Z,0.47
2023-02-02T19:24:17.780Z,0.49
2023-02-02T19:26:47.484Z,0.51
2023-02-02T19:29:23.697Z,0.53
2023-02-02T19:31:54.186Z,0.53
2023-02-02T19:34:23.309Z,0.53
2023-02-02T19:36:52.457Z,0.51
2023-02-02T19:39:34.119Z,0.50
2023-02-02T19:42:02.690Z,0.50
2023-02-02T19:44:34.391Z,0.49
2023-02-02T19:47:24.516Z,0.47
2023-02-02T19:49:53.580Z,0.46
2023-02-02T19:52:24.776Z,0.45
2023-02-02T19:54:53.518Z,0.43
2023-02-02T19:57:37.007Z,0.43
2023-02-02T20:00:27.472Z,0.42
2023-02-02T20:03:23.107Z,0.41
2023-02-02T20:05:52.276Z,0.39
2023-02-02T20:08:31.962Z,0.37
2023-02-02T20:11:01.436Z,0.35
2023-02-02T20:13:35.838Z,0.33
2023-02-02T20:16:05.314Z,0.33
2023-02-02T20:18:42.982Z,0.32
2023-02-02T20:21:38.166Z,0.30
2023-02-02T20:24:37.464Z,0.28
2023-02-02T20:27:18.653Z,0.26
2023-02-02T20:29:48.748Z,0.25
2023-02-02T20:32:44.247Z,0.23
2023-02-02T20:35:23.536Z,0.22
2023-02-02T20:37:52.378Z,0.22
2023-02-02T20:40:20.963Z,0.21
2023-02-02T20:42:49.928Z,0.21
2023-02-02T20:45:21.930Z,0.22
2023-02-02T20:47:51.019Z,0.27
2023-02-02T20:50:20.939Z,0.26
2023-02-02T20:52:51.277Z,0.26
2023-02-02T20:55:19.927Z,0.23
2023-02-02T20:57:52.607Z,0.21
2023-02-02T21:00:27.540Z,0.18
2023-02-02T21:02:57.257Z,0.18
2023-02-02T21:05:26.299Z,0.15
2023-02-02T21:07:56.938Z,0.12
2023-02-02T21:10:26.446Z,0.09
2023-02-02T21:12:56.078Z,0.06
2023-02-02T21:15:26.623Z,0.03
2023-02-02T21:17:56.088Z,0.00
2023-02-02T21:20:25.428Z,-0.04
2023-02-02T21:22:56.364Z,-0.06
2023-02-02T21:25:25.275Z,-0.09
2023-02-02T21:28:00.426Z,-0.11
2023-02-02T21:30:29.568Z,-0.13
2023-02-02T21:32:58.738Z,-0.14
2023-02-02T21:35:27.269Z,-0.14
2023-02-02T21:37:57.993Z,-0.14
2023-02-02T21:40:30.400Z,-0.15
2023-02-02T21:42:59.999Z,-0.14
2023-02-02T21:45:36.874Z,-0.13
2023-02-02T21:48:35.411Z,-0.10
2023-02-02T21:51:27.689Z,-0.07
2023-02-02T21:53:56.274Z,-0.04
2023-02-02T21:56:34.178Z,-0.03
2023-02-02T21:59:17.468Z,0.02
2023-02-02T22:01:54.589Z,0.04
2023-02-02T22:04:28.561Z,0.06
2023-02-02T22:07:01.660Z,0.08
2023-02-02T22:09:38.450Z,0.10
2023-02-02T22:12:21.048Z,0.14
2023-02-02T22:14:51.167Z,0.17
2023-02-02T22:17:49.521Z,0.19
2023-02-02T22:20:33.250Z,0.22
2023-02-02T22:23:02.585Z,0.24
2023-02-02T22:25:36.303Z,0.26
2023-02-02T22:28:23.041Z,0.27
2023-02-02T22:30:52.704Z,0.28
2023-02-02T22:33:21.818Z,0.27
2023-02-02T22:35:50.256Z,0.26
2023-02-02T22:38:20.580Z,0.26
2023-02-02T22:40:50.129Z,0.23
2023-02-02T22:43:19.338Z,0.21
2023-02-02T22:45:47.871Z,0.16
2023-02-02T22:48:17.109Z,0.11
2023-02-02T22:50:46.060Z,0.06
2023-02-02T22:53:15.684Z,0.01
2023-02-02T22:55:44.502Z,-0.04
2023-02-02T22:58:13.068Z,-0.09
2023-02-02T23:00:41.930Z,-0.11
2023-02-02T23:03:11.039Z,-0.10
2023-02-02T23:05:39.919Z,-0.09
2023-02-02T23:08:08.262Z,-0.08
2023-02-02T23:10:56.501Z,-0.07
2023-02-02T23:13:24.967Z,-0.07
2023-02-02T23:15:53.547Z,-0.08
2023-02-02T23:18:22.400Z,-0.09
2023-02-02T23:20:50.802Z,-0.10
2023-02-02T23:23:19.258Z,-0.09
2023-02-02T23:25:47.911Z,-0.11
2023-02-02T23:28:16.551Z,-0.12
2023-02-02T23:30:45.083Z,-0.13
2023-02-02T23:33:13.491Z,-0.14
2023-02-02T23:35:42.181Z,-0.15
2023-02-02T23:38:10.974Z,-0.16
2023-02-02T23:40:39.365Z,-0.18
2023-02-02T23:43:07.729Z,-0.19
2023-02-02T23:45:36.728Z,-0.20
2023-02-02T23:48:06.249Z,-0.20
2023-02-02T23:50:37.842Z,-0.20
2023-02-02T23:53:06.967Z,-0.20
2023-02-02T23:55:37.300Z,-0.20
2023-02-02T23:58:06.293Z,-0.20
